createdAt,value
2023-01-05T00:04:38.993Z,14.18
2023-01-05T00:15:00.584Z,8.23
2023-01-05T00:25:11.734Z,12.75
2023-01-05T00:35:18.045Z,16.40
2023-01-05T00:45:22.028Z,13.90
2023-01-05T00:55:26.422Z,5.43
2023-01-05T01:05:29.187Z,8.63
2023-01-05T01:15:33.452Z,9.85
2023-01-05T01:25:38.500Z,9.85
2023-01-05T01:35:42.879Z,9.40
2023-01-05T01:45:45.796Z,12.77
2023-01-05T01:55:51.885Z,12.07
2023-01-05T02:05:55.142Z,9.40
2023-01-05T02:16:05.885Z,20.13
2023-01-05T02:26:30.176Z,13.27
2023-01-05T02:36:40.720Z,10.20
2023-01-05T02:46:43.467Z,10.50
2023-01-05T02:56:52.837Z,11.48
2023-01-05T03:06:58.013Z,19.55
2023-01-05T03:17:02.824Z,17.00
2023-01-05T03:27:25.391Z,19.15
2023-01-05T03:37:35.109Z,14.07
2023-01-05T03:47:37.957Z,11.50
2023-01-05T03:57:42.146Z,13.85
2023-01-05T04:07:44.893Z,9.55
2023-01-05T04:17:49.115Z,12.68
2023-01-05T04:27:51.922Z,14.75
2023-01-05T04:37:55.932Z,18.20
2023-01-05T04:47:58.661Z,18.90
2023-01-05T04:58:06.893Z,16.40
2023-01-05T05:08:12.809Z,8.68
2023-01-05T05:18:16.913Z,11.60
2023-01-05T05:28:20.029Z,10.55
2023-01-05T05:38:24.182Z,13.80
2023-01-05T05:48:26.958Z,11.75
2023-01-05T05:58:31.246Z,16.08
2023-01-05T06:08:34.198Z,15.38
2023-01-05T06:18:38.243Z,15.82
2023-01-05T06:28:41.044Z,16.17
2023-01-05T06:38:45.563Z,19.77
2023-01-05T06:48:48.301Z,9.68
2023-01-05T06:58:52.514Z,15.02
2023-01-05T07:08:55.263Z,17.25
2023-01-05T07:18:59.545Z,12.98
2023-01-05T07:29:02.350Z,13.15
2023-01-05T07:39:06.669Z,17.10
2023-01-05T07:49:09.388Z,18.73
2023-01-05T07:59:13.434Z,10.88
2023-01-05T08:09:33.570Z,10.23
2023-01-05T08:19:37.679Z,5.82
2023-01-05T08:29:40.431Z,10.15
2023-01-05T08:39:44.440Z,13.93
2023-01-05T08:49:47.310Z,6.90
2023-01-05T08:59:51.414Z,7.28
2023-01-05T09:09:54.299Z,5.13
2023-01-05T09:19:58.377Z,4.60
2023-01-05T09:30:01.094Z,11.77
2023-01-05T09:40:06.105Z,6.03
2023-01-05T09:50:19.325Z,5.20
2023-01-05T10:00:24.911Z,8.32
2023-01-05T10:10:46.139Z,14.20
2023-01-05T10:21:02.589Z,3.72
2023-01-05T10:31:14.426Z,4.50
2023-01-05T10:41:26.888Z,7.75
2023-01-05T10:51:34.333Z,7.72
2023-01-05T11:01:39.233Z,7.57
2023-01-05T11:11:42.291Z,7.97
2023-01-05T11:21:47.386Z,9.48
2023-01-05T11:31:54.539Z,10.82
2023-01-05T11:42:17.482Z,6.85
2023-01-05T11:52:27.246Z,7.43
2023-01-05T12:03:03.635Z,7.00
2023-01-05T12:13:22.194Z,7.53
2023-01-05T12:23:50.885Z,16.52
2023-01-05T12:34:36.141Z,8.32
2023-01-05T12:45:12.934Z,12.80
2023-01-05T12:55:20.161Z,9.30
2023-01-05T13:05:29.992Z,6.57
2023-01-05T13:15:40.452Z,11.57
2023-01-05T13:25:51.963Z,11.60
2023-01-05T13:36:05.111Z,8.80
2023-01-05T13:46:47.290Z,9.32
2023-01-05T13:56:51.098Z,8.15
2023-01-05T14:06:58.344Z,6.35
2023-01-05T14:17:01.012Z,12.70
2023-01-05T14:27:08.244Z,11.38
2023-01-05T14:37:23.640Z,21.17
2023-01-05T14:47:44.891Z,28.20
2023-01-05T14:57:52.267Z,19.90
2023-01-05T15:08:08.573Z,15.40
2023-01-05T15:18:48.868Z,10.73
2023-01-05T15:29:24.039Z,13.15
2023-01-05T15:39:31.871Z,11.90
2023-01-05T15:49:36.058Z,12.73
2023-01-05T15:59:41.545Z,17.05
2023-01-05T16:09:48.271Z,13.13
2023-01-05T16:19:53.947Z,14.13
2023-01-05T16:30:14.885Z,20.23
2023-01-05T16:40:21.341Z,22.02
2023-01-05T16:50:53.165Z,16.40
2023-01-05T17:01:15.382Z,18.02
2023-01-05T17:11:19.490Z,28.75
2023-01-05T17:21:24.628Z,23.60
2023-01-05T17:31:29.350Z,19.60
2023-01-05T17:41:32.395Z,28.10
2023-01-05T17:51:36.659Z,19.80
2023-01-05T18:01:39.411Z,26.50
2023-01-05T18:11:43.789Z,32.78
2023-01-05T18:21:46.686Z,22.65
2023-01-05T18:31:50.819Z,21.20
2023-01-05T18:41:53.543Z,23.90
2023-01-05T18:51:57.647Z,33.13
2023-01-05T19:02:00.431Z,35.30
2023-01-05T19:12:05.060Z,26.95
2023-01-05T19:22:07.775Z,23.70
2023-01-05T19:32:12.022Z,31.75
2023-01-05T19:42:15.052Z,24.05
2023-01-05T19:52:19.089Z,24.38
2023-01-05T20:02:21.994Z,30.77
2023-01-05T20:12:26.119Z,35.72
2023-01-05T20:22:28.842Z,22.27
2023-01-05T20:32:34.728Z,24.00
2023-01-05T20:42:38.324Z,26.05
2023-01-05T20:52:42.496Z,32.13
2023-01-05T21:02:47.473Z,29.25
2023-01-05T21:12:51.825Z,21.35
2023-01-05T21:22:56.108Z,35.92
2023-01-05T21:33:00.181Z,36.08
2023-01-05T21:43:05.013Z,37.67
2023-01-05T21:53:31.999Z,25.33
2023-01-05T22:03:34.735Z,35.60
2023-01-05T22:13:40.003Z,39.42
2023-01-05T22:23:43.205Z,36.60
2023-01-05T22:33:49.315Z,32.80
2023-01-05T22:43:52.518Z,32.45
2023-01-05T22:53:57.048Z,36.05
2023-01-05T23:04:02.083Z,24.58
2023-01-05T23:14:08.278Z,42.60
2023-01-05T23:24:11.105Z,41.50
2023-01-05T23:34:15.259Z,45.03
2023-01-05T23:44:17.957Z,53.08
2023-01-05T23:54:22.070Z,38.65
